Terminal Aerodrome Forecast
Issued by NWS

Home | Current Version | Previous Version | Text Only | Print | Product List | Glossary On
Versions: 1 2 3 4 5 6 7 8 9 10 11 12 13 14 15 16 17
000
FTUS43 KMQT 220520
TAFIWD
TAF
KIWD 220520Z 2206/2306 06007KT 5SM BR OVC003
     FM220900 06007KT P6SM OVC003
     FM221100 06007KT P6SM VCSH OVC003
     FM221600 05011G19KT P6SM -FZDZ OVC003
     FM221800 04012G22KT 4SM -FZRA BR OVC008
     FM222000 04013G24KT 3SM -SN BR OVC003
     FM230000 04014G27KT 2SM -SN BR OVC003=

USA.gov is the U.S. government's official web portal to all federal, state and local government web resources and services.